createdAt,value
2018-12-03T00:00:31.558Z,13.04
2018-12-03T00:01:31.548Z,13.00
2018-12-03T00:02:31.535Z,13.04
2018-12-03T00:03:31.543Z,13.07
2018-12-03T00:04:31.512Z,12.97
2018-12-03T00:05:31.503Z,13.03
2018-12-03T00:06:31.488Z,13.03
2018-12-03T00:07:31.478Z,12.99
2018-12-03T00:08:31.482Z,12.99
2018-12-03T00:09:31.453Z,13.02
2018-12-03T00:10:31.441Z,12.99
2018-12-03T00:11:31.429Z,12.99
2018-12-03T00:12:31.420Z,12.96
2018-12-03T00:13:31.430Z,12.92
2018-12-03T00:14:31.395Z,13.00
2018-12-03T00:15:31.382Z,12.93
2018-12-03T00:16:31.373Z,12.96
2018-12-03T00:17:31.360Z,12.95
2018-12-03T00:18:31.348Z,13.03
2018-12-03T00:19:31.356Z,13.03
2018-12-03T00:20:31.325Z,12.97
2018-12-03T00:21:31.315Z,13.04
2018-12-03T00:22:31.308Z,12.93
2018-12-03T00:23:31.293Z,12.93
2018-12-03T00:24:31.295Z,13.11
2018-12-03T00:25:31.268Z,13.06
2018-12-03T00:26:31.257Z,12.95
2018-12-03T00:27:31.265Z,13.07
2018-12-03T00:28:31.234Z,12.99
2018-12-03T00:29:31.245Z,12.97
2018-12-03T00:30:31.212Z,12.99
2018-12-03T00:31:31.243Z,12.89
2018-12-03T00:32:31.186Z,12.96
2018-12-03T00:33:31.177Z,12.95
2018-12-03T00:34:31.189Z,12.99
2018-12-03T00:35:31.154Z,12.96
2018-12-03T00:36:31.139Z,12.95
2018-12-03T00:37:31.131Z,12.92
2018-12-03T00:38:31.117Z,12.85
2018-12-03T00:39:31.124Z,12.97
2018-12-03T00:40:31.094Z,12.87
2018-12-03T00:41:31.089Z,12.87
2018-12-03T00:42:31.072Z,13.02
2018-12-03T00:43:31.059Z,12.82
2018-12-03T00:44:31.093Z,12.88
2018-12-03T00:45:31.040Z,12.85
2018-12-03T00:46:31.023Z,12.85
2018-12-03T00:47:31.011Z,12.89
2018-12-03T00:48:31.000Z,12.87
2018-12-03T00:49:31.012Z,12.85
2018-12-03T00:50:30.978Z,12.85
2018-12-03T00:51:30.965Z,12.81
2018-12-03T00:52:30.952Z,12.81
2018-12-03T00:53:30.941Z,12.78
2018-12-03T00:54:30.933Z,12.81
2018-12-03T00:55:30.943Z,12.78
2018-12-03T00:56:30.908Z,12.77
2018-12-03T00:57:30.894Z,12.75
2018-12-03T00:58:30.883Z,12.71
2018-12-03T00:59:30.873Z,12.67
2018-12-03T01:00:30.877Z,12.70
2018-12-03T01:01:30.850Z,12.71
2018-12-03T01:02:30.835Z,12.69
2018-12-03T01:03:30.825Z,12.70
2018-12-03T01:04:30.819Z,12.70
2018-12-03T01:05:30.822Z,12.69
2018-12-03T01:06:30.791Z,12.67
2018-12-03T01:07:30.783Z,12.66
2018-12-03T01:08:30.766Z,12.67
2018-12-03T01:09:30.770Z,12.66
2018-12-03T01:10:30.797Z,12.63
2018-12-03T01:11:30.731Z,12.70
2018-12-03T01:12:30.719Z,12.59
2018-12-03T01:13:30.708Z,12.63
2018-12-03T01:14:30.696Z,12.69
2018-12-03T01:15:30.707Z,12.70
2018-12-03T01:16:30.674Z,12.75
2018-12-03T01:17:30.662Z,12.74
2018-12-03T01:18:30.652Z,12.70
2018-12-03T01:19:30.638Z,12.75
2018-12-03T01:20:30.649Z,12.67
2018-12-03T01:21:30.617Z,12.63
2018-12-03T01:22:30.605Z,12.75
2018-12-03T01:23:30.592Z,12.74
2018-12-03T01:24:30.580Z,12.78
2018-12-03T01:25:30.569Z,12.70
2018-12-03T01:26:30.578Z,12.71
2018-12-03T01:27:30.547Z,12.77
2018-12-03T01:28:30.534Z,12.77
2018-12-03T01:29:30.522Z,12.78
2018-12-03T01:30:30.531Z,12.77
2018-12-03T01:31:30.501Z,12.78
2018-12-03T01:32:30.488Z,12.79
2018-12-03T01:33:30.478Z,12.77
2018-12-03T01:34:30.471Z,12.74
2018-12-03T01:35:30.472Z,12.77
2018-12-03T01:36:30.442Z,12.79
2018-12-03T01:37:30.431Z,12.81
2018-12-03T01:38:30.419Z,12.78
2018-12-03T01:39:30.409Z,12.77
2018-12-03T01:40:30.415Z,12.74
2018-12-03T01:41:30.383Z,12.75
2018-12-03T01:42:30.372Z,12.79
2018-12-03T01:43:30.396Z,12.78
2018-12-03T01:44:30.349Z,12.79
2018-12-03T01:45:30.359Z,12.77
2018-12-03T01:46:30.326Z,12.78
2018-12-03T01:47:30.323Z,12.84
2018-12-03T01:48:30.303Z,12.82
2018-12-03T01:49:30.350Z,12.78
2018-12-03T01:50:30.303Z,12.82
2018-12-03T01:51:30.268Z,12.71
2018-12-03T01:52:30.256Z,12.82
2018-12-03T01:53:30.243Z,12.84
2018-12-03T01:54:30.233Z,12.81
2018-12-03T01:55:30.220Z,12.78
2018-12-03T01:56:30.229Z,12.81
2018-12-03T01:57:30.197Z,12.85
2018-12-03T01:58:30.185Z,12.77
2018-12-03T01:59:30.174Z,12.84
2018-12-03T02:00:30.165Z,12.82
2018-12-03T02:01:30.171Z,12.82
2018-12-03T02:02:30.142Z,12.78
2018-12-03T02:03:30.127Z,12.81
2018-12-03T02:04:30.116Z,12.84
2018-12-03T02:05:30.104Z,12.87
2018-12-03T02:06:30.111Z,12.78
2018-12-03T02:07:30.083Z,12.87
2018-12-03T02:08:30.076Z,12.82
2018-12-03T02:09:30.057Z,12.85
2018-12-03T02:10:30.045Z,12.93
2018-12-03T02:11:30.057Z,12.88
2018-12-03T02:12:30.021Z,12.88
2018-12-03T02:13:30.012Z,12.99
2018-12-03T02:14:29.998Z,12.88
2018-12-03T02:15:29.987Z,12.97
2018-12-03T02:16:29.995Z,12.96
2018-12-03T02:17:29.964Z,13.03
2018-12-03T02:18:29.952Z,13.06
2018-12-03T02:19:29.940Z,13.12
2018-12-03T02:20:29.927Z,13.04
2018-12-03T02:21:29.934Z,13.03
2018-12-03T02:22:29.905Z,12.96
2018-12-03T02:23:29.894Z,13.02
2018-12-03T02:24:29.886Z,13.02
2018-12-03T02:25:29.868Z,13.09
2018-12-03T02:26:29.878Z,13.04
2018-12-03T02:27:29.849Z,13.02
2018-12-03T02:28:29.834Z,12.95
2018-12-03T02:29:29.824Z,13.02
2018-12-03T02:30:29.811Z,13.00
2018-12-03T02:31:29.817Z,13.00
2018-12-03T02:32:29.790Z,13.04
2018-12-03T02:33:29.779Z,13.02
2018-12-03T02:34:29.766Z,12.99
2018-12-03T02:35:29.753Z,13.03
2018-12-03T02:36:29.760Z,13.11
2018-12-03T02:37:29.749Z,13.12
2018-12-03T02:38:29.721Z,13.12
2018-12-03T02:39:29.711Z,13.09
2018-12-03T02:40:29.754Z,13.12
2018-12-03T02:41:29.685Z,13.03
2018-12-03T02:42:29.695Z,13.15
2018-12-03T02:43:29.678Z,13.14
2018-12-03T02:44:29.666Z,13.02
2018-12-03T02:45:29.667Z,13.14
2018-12-03T02:46:45.459Z,13.20
2018-12-03T02:47:29.614Z,13.02
2018-12-03T02:48:29.618Z,13.04
2018-12-03T02:49:29.591Z,12.99
2018-12-03T02:50:29.579Z,12.99
2018-12-03T02:51:29.586Z,13.02
2018-12-03T02:52:29.566Z,13.04
2018-12-03T02:53:29.544Z,13.00
2018-12-03T02:54:29.533Z,13.04
2018-12-03T02:55:29.519Z,13.00
2018-12-03T02:56:29.527Z,13.06
2018-12-03T02:57:29.504Z,13.03
2018-12-03T02:58:29.485Z,12.95
2018-12-03T02:59:29.476Z,13.07
2018-12-03T03:00:29.465Z,13.06
2018-12-03T03:01:29.468Z,13.03
2018-12-03T03:02:29.440Z,13.14
2018-12-03T03:03:29.428Z,13.02
2018-12-03T03:04:29.416Z,13.00
2018-12-03T03:05:29.408Z,13.03
2018-12-03T03:06:29.416Z,13.04
2018-12-03T03:07:29.384Z,13.09
2018-12-03T03:08:29.371Z,12.96
2018-12-03T03:09:29.357Z,12.93
2018-12-03T03:10:29.346Z,13.02
2018-12-03T03:11:29.351Z,13.02
2018-12-03T03:12:29.324Z,12.96
2018-12-03T03:13:29.315Z,13.00
2018-12-03T03:14:29.300Z,13.09
2018-12-03T03:15:29.289Z,13.06
2018-12-03T03:16:29.299Z,13.09
2018-12-03T03:17:29.266Z,12.99
2018-12-03T03:18:29.254Z,12.93
2018-12-03T03:19:29.243Z,13.00
2018-12-03T03:20:29.231Z,12.96
2018-12-03T03:21:29.235Z,12.92
2018-12-03T03:22:29.206Z,12.82
2018-12-03T03:23:29.193Z,12.81
2018-12-03T03:24:29.182Z,12.85
2018-12-03T03:25:29.170Z,12.87
2018-12-03T03:26:29.180Z,12.88
2018-12-03T03:27:29.170Z,12.84
2018-12-03T03:28:29.133Z,12.79
2018-12-03T03:29:29.125Z,12.85
2018-12-03T03:30:29.112Z,12.88
2018-12-03T03:31:29.120Z,12.85
2018-12-03T03:32:29.092Z,12.84
2018-12-03T03:33:29.082Z,12.85
2018-12-03T03:34:29.064Z,12.82
2018-12-03T03:35:29.055Z,12.81
2018-12-03T03:36:29.062Z,12.88
2018-12-03T03:37:29.029Z,12.85
2018-12-03T03:38:29.017Z,12.79
2018-12-03T03:39:29.006Z,12.82
2018-12-03T03:40:28.994Z,12.87
2018-12-03T03:41:29.013Z,12.87
2018-12-03T03:42:28.971Z,12.81
2018-12-03T03:43:28.960Z,12.84
2018-12-03T03:44:28.947Z,12.95
2018-12-03T03:45:28.935Z,12.88
2018-12-03T03:46:28.925Z,12.89
2018-12-03T03:47:28.939Z,12.92
2018-12-03T03:48:28.901Z,12.96
2018-12-03T03:49:28.892Z,12.88
2018-12-03T03:50:28.880Z,12.96
2018-12-03T03:51:28.864Z,12.92
2018-12-03T03:52:28.893Z,12.99
2018-12-03T03:53:28.842Z,12.96
2018-12-03T03:54:28.832Z,12.92
2018-12-03T03:55:28.820Z,12.97
2018-12-03T03:56:28.812Z,12.99
2018-12-03T03:57:28.800Z,12.96
2018-12-03T03:58:28.807Z,12.95
2018-12-03T03:59:28.771Z,12.93
2018-12-03T04:00:28.760Z,13.00
2018-12-03T04:01:28.774Z,12.99
2018-12-03T04:02:28.740Z,12.99
2018-12-03T04:03:28.751Z,12.97
2018-12-03T04:04:28.714Z,12.99
2018-12-03T04:05:28.701Z,13.04
2018-12-03T04:06:28.691Z,13.07
2018-12-03T04:07:28.677Z,13.09
2018-12-03T04:08:28.684Z,13.06
2018-12-03T04:09:28.658Z,13.06
2018-12-03T04:10:28.643Z,13.12
2018-12-03T04:11:28.632Z,13.18
2018-12-03T04:12:28.639Z,13.12
2018-12-03T04:13:28.634Z,13.11
2018-12-03T04:14:28.597Z,13.14
2018-12-03T04:15:28.602Z,13.12
2018-12-03T04:16:28.592Z,13.12
2018-12-03T04:17:28.560Z,13.11
2018-12-03T04:18:28.583Z,13.24
2018-12-03T04:19:28.549Z,13.12
2018-12-03T04:20:28.527Z,13.11
2018-12-03T04:21:28.514Z,13.12
2018-12-03T04:22:28.508Z,13.06
2018-12-03T04:23:28.526Z,13.18
2018-12-03T04:25:19.541Z,13.15
2018-12-03T04:26:19.529Z,13.11
2018-12-03T04:27:19.519Z,13.15
2018-12-03T04:28:19.530Z,13.11
2018-12-03T04:29:19.494Z,13.07
2018-12-03T04:30:19.487Z,13.24
2018-12-03T04:31:19.472Z,13.07
2018-12-03T04:32:19.465Z,13.12
2018-12-03T04:33:19.473Z,13.11
2018-12-03T04:34:19.437Z,13.11
2018-12-03T04:35:19.425Z,13.14
2018-12-03T04:36:19.415Z,13.14
2018-12-03T04:37:20.753Z,13.09
2018-12-03T04:38:19.409Z,13.03
2018-12-03T04:39:19.379Z,12.99
2018-12-03T04:40:19.392Z,13.06
2018-12-03T04:41:19.355Z,13.02
2018-12-03T04:42:19.344Z,13.06
2018-12-03T04:43:19.353Z,13.06
2018-12-03T04:44:19.322Z,13.07
2018-12-03T04:45:19.310Z,12.89
2018-12-03T04:46:19.299Z,13.00
2018-12-03T04:47:19.285Z,12.95
2018-12-03T04:48:19.298Z,12.95
2018-12-03T04:49:19.262Z,12.96
2018-12-03T04:50:19.253Z,12.89
2018-12-03T04:51:19.241Z,12.93
2018-12-03T04:52:19.238Z,12.92
2018-12-03T04:53:19.234Z,12.97
2018-12-03T04:54:19.203Z,12.95
2018-12-03T04:55:19.197Z,12.97
2018-12-03T04:56:19.219Z,12.92
2018-12-03T04:57:19.172Z,12.95
2018-12-03T04:58:19.210Z,13.09
2018-12-03T04:59:19.151Z,12.95
2018-12-03T05:00:19.132Z,12.96
2018-12-03T05:01:19.123Z,12.96
2018-12-03T05:02:19.111Z,12.82
2018-12-03T05:03:19.102Z,12.89
2018-12-03T05:04:19.110Z,12.85
2018-12-03T05:05:19.075Z,12.88
2018-12-03T05:06:19.064Z,12.87
2018-12-03T05:07:19.052Z,12.79
2018-12-03T05:08:19.040Z,12.85
2018-12-03T05:09:19.071Z,12.81
2018-12-03T05:10:19.016Z,12.84
2018-12-03T05:11:19.016Z,12.74
2018-12-03T05:12:18.997Z,12.78
2018-12-03T05:13:18.981Z,12.69
2018-12-03T05:14:18.969Z,12.64
2018-12-03T05:15:18.978Z,12.57
2018-12-03T05:16:18.947Z,12.44
2018-12-03T05:17:18.939Z,12.45
2018-12-03T05:18:18.923Z,12.42
2018-12-03T05:19:18.913Z,12.45
2018-12-03T05:20:18.919Z,12.41
2018-12-03T05:21:18.890Z,12.46
2018-12-03T05:22:18.899Z,12.44
2018-12-03T05:23:18.865Z,12.39
2018-12-03T05:24:18.853Z,12.29
2018-12-03T05:25:19.596Z,12.45
2018-12-03T05:26:18.831Z,12.44
2018-12-03T05:27:18.823Z,12.39
2018-12-03T05:28:18.805Z,12.39
2018-12-03T05:29:18.798Z,12.49
2018-12-03T05:30:18.800Z,12.46
2018-12-03T05:31:18.773Z,12.45
2018-12-03T05:32:18.758Z,12.48
2018-12-03T05:33:18.747Z,12.42
2018-12-03T05:34:18.741Z,12.38
2018-12-03T05:35:18.742Z,12.38
2018-12-03T05:36:18.711Z,12.39
2018-12-03T05:37:18.704Z,12.41
2018-12-03T05:38:18.690Z,12.48
2018-12-03T05:39:18.677Z,12.41
2018-12-03T05:40:18.694Z,12.39
2018-12-03T05:41:18.653Z,12.41
2018-12-03T05:42:18.648Z,12.45
2018-12-03T05:43:18.633Z,12.39
2018-12-03T05:44:18.618Z,12.45
2018-12-03T05:45:18.629Z,12.41
2018-12-03T05:46:18.593Z,12.51
2018-12-03T05:47:18.582Z,12.33
2018-12-03T05:48:18.572Z,12.52
2018-12-03T05:49:18.558Z,12.38
2018-12-03T05:50:18.568Z,12.39
2018-12-03T05:51:18.547Z,12.54
2018-12-03T05:52:18.526Z,12.51
2018-12-03T05:53:18.512Z,12.45
2018-12-03T05:54:18.503Z,12.48
2018-12-03T05:55:18.512Z,12.34
2018-12-03T05:56:18.477Z,12.52
2018-12-03T05:57:18.480Z,12.57
2018-12-03T05:58:18.453Z,12.49
2018-12-03T05:59:18.455Z,12.51
2018-12-03T06:00:18.492Z,12.54
2018-12-03T06:01:18.421Z,12.57
2018-12-03T06:02:18.408Z,12.45
2018-12-03T06:03:18.400Z,12.51
2018-12-03T06:04:18.385Z,12.45
2018-12-03T06:05:18.392Z,12.46
2018-12-03T06:06:18.362Z,12.46
2018-12-03T06:07:18.351Z,12.45
2018-12-03T06:08:18.340Z,12.54
2018-12-03T06:09:18.327Z,12.59
2018-12-03T06:10:18.340Z,12.56
2018-12-03T06:11:18.343Z,12.49
2018-12-03T06:12:18.338Z,12.52
2018-12-03T06:13:18.282Z,12.52
2018-12-03T06:14:18.269Z,12.63
2018-12-03T06:15:18.292Z,12.66
2018-12-03T06:16:18.252Z,12.85
2018-12-03T06:17:18.238Z,12.88
2018-12-03T06:18:18.222Z,12.85
2018-12-03T06:19:18.212Z,12.99
2018-12-03T06:20:18.222Z,13.04
2018-12-03T06:21:18.186Z,13.04
2018-12-03T06:22:18.177Z,13.07
2018-12-03T06:23:18.168Z,12.99
2018-12-03T06:24:18.157Z,13.04
2018-12-03T06:25:18.182Z,12.89
2018-12-03T06:26:18.130Z,13.02
2018-12-03T06:27:18.117Z,13.04
2018-12-03T06:28:18.105Z,12.99
2018-12-03T06:29:18.095Z,13.09
2018-12-03T06:30:18.105Z,12.99
2018-12-03T06:31:18.105Z,12.92
2018-12-03T06:32:18.063Z,12.85
2018-12-03T06:33:18.058Z,12.77
2018-12-03T06:34:19.048Z,12.78
2018-12-03T06:35:18.047Z,12.69
2018-12-03T06:36:18.020Z,12.64
2018-12-03T06:37:18.000Z,12.56
2018-12-03T06:38:17.989Z,12.49
2018-12-03T06:39:17.980Z,12.45
2018-12-03T06:40:17.987Z,12.34
2018-12-03T06:41:17.979Z,12.44
2018-12-03T06:42:17.947Z,12.31
2018-12-03T06:43:17.933Z,12.42
2018-12-03T06:44:17.929Z,12.26
2018-12-03T06:45:17.929Z,12.46
2018-12-03T06:46:17.918Z,12.37
2018-12-03T06:47:17.885Z,12.39
2018-12-03T06:48:17.872Z,12.33
2018-12-03T06:49:17.863Z,12.31
2018-12-03T06:50:17.909Z,12.39
2018-12-03T06:51:17.837Z,12.37
2018-12-03T06:52:17.830Z,12.33
2018-12-03T06:53:17.817Z,12.30
2018-12-03T06:54:17.805Z,12.37
2018-12-03T06:55:17.833Z,12.27
2018-12-03T06:56:17.778Z,12.26
2018-12-03T06:57:17.769Z,12.26
2018-12-03T06:58:17.756Z,12.24
2018-12-03T06:59:17.744Z,12.16
2018-12-03T07:00:17.734Z,12.19
2018-12-03T07:01:17.741Z,12.30
2018-12-03T07:02:17.709Z,12.34
2018-12-03T07:03:17.698Z,12.29
2018-12-03T07:04:17.686Z,12.37
2018-12-03T07:05:17.675Z,12.41
2018-12-03T07:06:17.684Z,12.45
2018-12-03T07:07:17.651Z,12.39
2018-12-03T07:08:17.640Z,12.49
2018-12-03T07:09:17.634Z,12.49
2018-12-03T07:10:17.630Z,12.42
2018-12-03T07:11:17.625Z,12.42
2018-12-03T07:12:17.597Z,12.41
2018-12-03T07:13:17.586Z,12.44
2018-12-03T07:14:17.570Z,12.44
2018-12-03T07:15:17.559Z,12.42
2018-12-03T07:16:17.575Z,12.57
2018-12-03T07:17:17.538Z,12.52
2018-12-03T07:18:17.523Z,12.42
2018-12-03T07:19:17.511Z,12.44
2018-12-03T07:20:17.503Z,12.54
2018-12-03T07:21:17.512Z,12.51
2018-12-03T07:22:18.352Z,12.41
2018-12-03T07:23:17.467Z,12.41
2018-12-03T07:24:17.457Z,12.49
2018-12-03T07:25:17.443Z,12.42
2018-12-03T07:26:17.468Z,12.57
2018-12-03T07:27:17.419Z,12.42
2018-12-03T07:28:17.407Z,12.48
2018-12-03T07:29:17.434Z,12.46
2018-12-03T07:30:17.385Z,12.46
2018-12-03T07:31:17.395Z,12.52
2018-12-03T07:32:17.361Z,12.48
2018-12-03T07:33:17.350Z,12.56
2018-12-03T07:34:17.336Z,12.63
2018-12-03T07:35:17.328Z,12.74
2018-12-03T07:36:17.342Z,12.75
2018-12-03T07:37:17.309Z,12.71
2018-12-03T07:38:17.293Z,12.64
2018-12-03T07:39:17.282Z,12.70
2018-12-03T07:40:17.268Z,12.56
2018-12-03T07:41:17.275Z,12.59
2018-12-03T07:42:17.246Z,12.63
2018-12-03T07:43:17.233Z,12.56
2018-12-03T07:44:17.221Z,12.56
2018-12-03T07:45:17.214Z,12.48
2018-12-03T07:46:17.225Z,12.54
2018-12-03T07:47:17.190Z,12.49
2018-12-03T07:48:17.175Z,12.54
2018-12-03T07:49:17.169Z,12.41
2018-12-03T07:50:17.171Z,12.45
2018-12-03T07:51:17.141Z,12.44
2018-12-03T07:52:17.148Z,12.52
2018-12-03T07:53:17.116Z,12.42
2018-12-03T07:54:17.109Z,12.39
2018-12-03T07:55:17.091Z,12.46
2018-12-03T07:56:17.080Z,12.42
2018-12-03T07:57:17.101Z,12.45
2018-12-03T07:58:17.060Z,12.34
2018-12-03T07:59:17.050Z,12.42
2018-12-03T08:00:17.043Z,12.42
2018-12-03T08:01:17.020Z,12.39
2018-12-03T08:02:17.011Z,12.42
2018-12-03T08:03:17.021Z,12.45
2018-12-03T08:04:16.991Z,12.42
2018-12-03T08:05:16.980Z,12.42
2018-12-03T08:06:16.964Z,12.39
2018-12-03T08:07:16.950Z,12.39
2018-12-03T08:08:16.961Z,12.42
2018-12-03T08:09:16.933Z,12.48
2018-12-03T08:10:16.920Z,12.45
2018-12-03T08:11:16.922Z,12.48
2018-12-03T08:12:16.895Z,12.33
2018-12-03T08:13:16.901Z,12.39
2018-12-03T08:14:16.869Z,12.48
2018-12-03T08:15:16.862Z,12.45
2018-12-03T08:16:16.848Z,12.38
2018-12-03T08:17:16.834Z,12.52
2018-12-03T08:18:16.841Z,12.49
2018-12-03T08:19:16.811Z,12.56
2018-12-03T08:20:16.798Z,12.74
2018-12-03T08:21:16.790Z,12.78
2018-12-03T08:22:16.776Z,12.85
2018-12-03T08:23:16.789Z,12.99
2018-12-03T08:24:16.755Z,12.89
2018-12-03T08:25:16.742Z,12.81
2018-12-03T08:26:16.732Z,12.93
2018-12-03T08:27:16.728Z,12.96
2018-12-03T08:28:16.707Z,13.02
2018-12-03T08:29:16.713Z,12.93
2018-12-03T08:30:16.683Z,13.04
2018-12-03T08:31:16.677Z,13.04
2018-12-03T08:32:16.659Z,13.06
2018-12-03T08:33:16.669Z,13.09
2018-12-03T08:34:16.657Z,13.02
2018-12-03T08:35:16.627Z,13.00
2018-12-03T08:36:16.613Z,13.07
2018-12-03T08:37:16.604Z,12.93
2018-12-03T08:38:16.594Z,12.92
2018-12-03T08:39:16.612Z,13.02
2018-12-03T08:40:16.567Z,12.93
2018-12-03T08:41:16.559Z,12.93
2018-12-03T08:42:16.548Z,12.99
2018-12-03T08:43:16.535Z,13.03
2018-12-03T08:44:16.525Z,13.15
2018-12-03T08:45:16.533Z,13.12
2018-12-03T08:46:16.500Z,13.30
2018-12-03T08:47:16.489Z,13.21
2018-12-03T08:48:16.481Z,13.25
2018-12-03T08:49:16.703Z,13.24
2018-12-03T08:50:16.472Z,13.24
2018-12-03T08:51:16.445Z,13.15
2018-12-03T08:52:16.431Z,13.06
2018-12-03T08:53:16.423Z,13.00
2018-12-03T08:54:16.410Z,13.02
2018-12-03T08:55:16.420Z,13.02
2018-12-03T08:56:16.395Z,13.02
2018-12-03T08:57:16.373Z,12.93
2018-12-03T08:58:16.362Z,13.04
2018-12-03T08:59:16.370Z,12.99
2018-12-03T09:00:16.342Z,13.06
2018-12-03T09:01:16.359Z,13.17
2018-12-03T09:02:16.318Z,13.14
2018-12-03T09:03:16.305Z,13.17
2018-12-03T09:04:16.294Z,13.30
2018-12-03T09:05:16.285Z,13.27
2018-12-03T09:06:16.297Z,13.29
2018-12-03T09:07:16.259Z,13.32
2018-12-03T09:08:16.251Z,13.20
2018-12-03T09:09:16.239Z,13.12
2018-12-03T09:10:16.232Z,13.14
2018-12-03T09:11:16.232Z,13.17
2018-12-03T09:12:16.207Z,13.11
2018-12-03T09:13:16.192Z,13.17
2018-12-03T09:14:16.178Z,13.41
2018-12-03T09:15:16.167Z,13.55
2018-12-03T09:16:16.173Z,14.38
2018-12-03T09:17:16.149Z,15.51
2018-12-03T09:18:16.158Z,16.34
2018-12-03T09:19:16.122Z,16.50
2018-12-03T09:20:16.111Z,16.12
2018-12-03T09:21:16.121Z,15.35
2018-12-03T09:22:16.123Z,14.78
2018-12-03T09:23:16.078Z,14.43
2018-12-03T09:24:16.063Z,14.21
2018-12-03T09:25:16.054Z,14.10
2018-12-03T09:26:16.059Z,14.13
2018-12-03T09:27:16.030Z,13.95
2018-12-03T09:28:16.018Z,13.98
2018-12-03T09:29:16.007Z,13.92
2018-12-03T09:30:15.993Z,13.81
2018-12-03T09:31:16.002Z,13.67
2018-12-03T09:32:15.974Z,13.61
2018-12-03T09:33:15.957Z,13.46
2018-12-03T09:34:15.946Z,13.51
2018-12-03T09:35:15.933Z,13.40
2018-12-03T09:36:15.944Z,13.37
2018-12-03T09:37:15.910Z,13.38
2018-12-03T09:38:15.900Z,13.32
2018-12-03T09:39:15.888Z,13.32
2018-12-03T09:40:15.876Z,13.32
2018-12-03T09:41:15.898Z,13.30
2018-12-03T09:42:15.854Z,13.20
2018-12-03T09:43:15.842Z,13.11
2018-12-03T09:44:15.834Z,13.03
2018-12-03T09:45:15.826Z,13.02
2018-12-03T09:46:15.829Z,13.03
2018-12-03T09:47:15.797Z,12.97
2018-12-03T09:48:15.785Z,13.02
2018-12-03T09:49:15.774Z,12.96
2018-12-03T09:50:15.764Z,12.95
2018-12-03T09:51:15.768Z,13.00
2018-12-03T09:52:15.745Z,12.95
2018-12-03T09:53:15.729Z,12.99
2018-12-03T09:54:15.715Z,13.15
2018-12-03T09:55:15.706Z,13.32
2018-12-03T09:56:15.713Z,13.30
2018-12-03T09:57:15.682Z,13.32
2018-12-03T09:58:15.678Z,13.51
2018-12-03T09:59:24.349Z,13.67
2018-12-03T10:00:16.653Z,13.91
2018-12-03T10:01:15.670Z,14.42
2018-12-03T10:02:15.626Z,14.34
2018-12-03T10:03:15.613Z,14.42
2018-12-03T10:04:15.605Z,15.06
2018-12-03T10:05:15.592Z,15.28
2018-12-03T10:06:15.602Z,15.49
2018-12-03T10:07:15.568Z,15.21
2018-12-03T10:08:15.555Z,15.05
2018-12-03T10:09:15.543Z,14.64
2018-12-03T10:10:15.532Z,14.43
2018-12-03T10:11:15.539Z,14.34
2018-12-03T10:12:18.198Z,14.37
2018-12-03T10:13:15.499Z,14.35
2018-12-03T10:14:15.485Z,14.32
2018-12-03T10:15:15.473Z,14.42
2018-12-03T10:16:15.480Z,14.42
2018-12-03T10:17:15.451Z,14.46
2018-12-03T10:18:15.439Z,14.37
2018-12-03T10:19:15.426Z,14.37
2018-12-03T10:20:15.416Z,14.35
2018-12-03T10:21:15.445Z,14.69
2018-12-03T10:22:15.392Z,14.52
2018-12-03T10:23:15.378Z,14.32
2018-12-03T10:24:15.367Z,14.02
2018-12-03T10:25:15.355Z,14.02
2018-12-03T10:26:22.401Z,13.92
2018-12-03T10:27:15.334Z,13.89
2018-12-03T10:28:15.319Z,13.87
2018-12-03T10:29:15.307Z,13.84
2018-12-03T10:30:15.297Z,13.83
2018-12-03T10:31:15.285Z,13.99
2018-12-03T10:32:15.296Z,14.24
2018-12-03T10:33:15.262Z,14.38
2018-12-03T10:34:15.251Z,14.71
2018-12-03T10:35:15.239Z,14.74
2018-12-03T10:36:15.227Z,15.21
2018-12-03T10:37:15.215Z,15.17
2018-12-03T10:38:15.221Z,14.94
2018-12-03T10:39:15.192Z,14.78
2018-12-03T10:40:15.180Z,14.67
2018-12-03T10:41:15.171Z,14.50
2018-12-03T10:42:15.167Z,14.56
2018-12-03T10:43:15.165Z,14.62
2018-12-03T10:44:15.135Z,14.43
2018-12-03T10:45:15.129Z,14.42
2018-12-03T10:46:15.111Z,14.42
2018-12-03T10:47:15.097Z,14.38
2018-12-03T10:48:15.116Z,14.35
2018-12-03T10:49:15.074Z,14.37
2018-12-03T10:50:15.061Z,14.47
2018-12-03T10:51:15.051Z,14.35
2018-12-03T10:52:15.044Z,14.39
2018-12-03T10:53:15.027Z,14.32
2018-12-03T10:54:15.034Z,14.21
2018-12-03T10:55:15.008Z,14.17
2018-12-03T10:56:14.991Z,14.24
2018-12-03T10:57:14.981Z,14.17
2018-12-03T10:58:14.968Z,14.37
2018-12-03T10:59:14.977Z,14.17
2018-12-03T11:00:14.945Z,14.19
2018-12-03T11:01:14.931Z,14.16
2018-12-03T11:02:14.921Z,14.07
2018-12-03T11:03:14.918Z,14.04
2018-12-03T11:04:14.918Z,14.04
2018-12-03T11:05:14.890Z,13.96
2018-12-03T11:06:14.873Z,13.91
2018-12-03T11:07:14.863Z,13.92
2018-12-03T11:08:14.850Z,14.01
2018-12-03T11:09:14.858Z,13.92
2018-12-03T11:10:14.827Z,13.92
2018-12-03T11:26:22.144Z,13.79
2018-12-03T11:27:30.168Z,13.74
2018-12-03T11:28:22.121Z,13.77
2018-12-03T11:29:22.096Z,13.71
2018-12-03T11:30:22.080Z,13.79
2018-12-03T11:31:22.072Z,13.79
2018-12-03T11:32:22.060Z,13.80
2018-12-03T11:33:22.063Z,13.89
2018-12-03T11:34:22.034Z,13.91
2018-12-03T11:35:22.024Z,13.92
2018-12-03T11:36:22.011Z,13.94
2018-12-03T11:37:21.999Z,14.19
2018-12-03T11:38:22.007Z,14.28
2018-12-03T11:39:21.976Z,14.21
2018-12-03T11:40:21.968Z,14.16
2018-12-03T11:41:21.958Z,14.04
2018-12-03T11:42:21.946Z,14.02
2018-12-03T11:43:21.952Z,14.06
2018-12-03T11:44:21.918Z,14.02
2018-12-03T11:45:21.908Z,13.91
2018-12-03T11:46:21.916Z,13.95
2018-12-03T11:47:21.886Z,13.94
2018-12-03T11:48:21.900Z,13.95
2018-12-03T11:49:21.862Z,14.09
2018-12-03T11:50:21.852Z,14.10
2018-12-03T11:51:21.842Z,14.14
2018-12-03T11:52:21.845Z,14.25
2018-12-03T11:53:21.816Z,14.35
2018-12-03T11:54:21.825Z,14.29
2018-12-03T11:55:21.792Z,14.34
2018-12-03T11:56:21.789Z,14.17
2018-12-03T11:57:21.769Z,14.16
2018-12-03T11:58:21.762Z,14.24
2018-12-03T11:59:21.788Z,14.21
2018-12-03T12:00:21.736Z,14.16
2018-12-03T12:01:21.723Z,14.20
2018-12-03T12:05:38.836Z,14.34
2018-12-03T12:06:38.820Z,14.38
2018-12-03T12:07:42.342Z,14.46
2018-12-03T12:08:38.796Z,14.31
2018-12-03T12:09:38.784Z,14.34
2018-12-03T12:10:38.817Z,14.35
2018-12-03T12:11:38.764Z,14.49
2018-12-03T12:12:45.847Z,14.49
2018-12-03T12:13:38.834Z,14.53
2018-12-03T12:14:38.729Z,14.49
2018-12-03T12:15:38.712Z,14.42
2018-12-03T12:16:38.726Z,14.56
2018-12-03T12:17:38.693Z,14.49
2018-12-03T12:18:38.676Z,14.61
2018-12-03T12:19:38.663Z,14.43
2018-12-03T12:20:38.674Z,14.32
2018-12-03T12:21:38.641Z,14.19
2018-12-03T12:22:38.659Z,14.35
2018-12-03T12:23:38.617Z,14.39
2018-12-03T12:24:38.608Z,14.49
2018-12-03T12:25:38.594Z,14.47
2018-12-03T12:26:38.581Z,14.56
2018-12-03T12:27:38.568Z,14.57
2018-12-03T12:28:38.605Z,14.57
2018-12-03T12:29:38.546Z,14.50
2018-12-03T12:30:38.533Z,14.47
2018-12-03T12:31:38.521Z,14.54
2018-12-03T12:32:38.509Z,14.50
2018-12-03T12:33:38.497Z,14.49
2018-12-03T12:34:38.525Z,14.47
2018-12-03T12:35:38.474Z,14.50
2018-12-03T12:36:38.462Z,14.52
2018-12-03T12:37:38.454Z,14.49
2018-12-03T12:38:38.436Z,14.47
2018-12-03T12:39:38.445Z,14.31
2018-12-03T12:40:38.414Z,14.38
2018-12-03T12:41:38.405Z,14.34
2018-12-03T12:42:38.389Z,14.29
2018-12-03T12:43:38.380Z,14.24
2018-12-03T12:44:38.390Z,14.28
2018-12-03T12:45:38.354Z,14.19
2018-12-03T12:46:38.343Z,14.28
2018-12-03T12:47:38.336Z,14.27
2018-12-03T12:48:38.319Z,14.34
2018-12-03T12:49:38.306Z,14.31
2018-12-03T12:50:38.316Z,14.25
2018-12-03T12:51:38.281Z,14.12
2018-12-03T12:52:38.271Z,14.01
2018-12-03T12:53:38.258Z,13.89
2018-12-03T12:54:38.246Z,13.92
2018-12-03T12:55:38.253Z,13.79
2018-12-03T12:56:38.222Z,13.94
2018-12-03T12:57:38.209Z,13.91
2018-12-03T12:58:38.198Z,13.89
2018-12-03T12:59:38.187Z,13.96
2018-12-03T13:00:38.198Z,13.88
2018-12-03T13:01:38.161Z,13.76
2018-12-03T13:02:38.149Z,13.77
2018-12-03T13:03:38.140Z,13.81
2018-12-03T13:04:38.127Z,13.89
2018-12-03T13:05:38.112Z,13.98
2018-12-03T13:06:38.124Z,14.49
2018-12-03T13:07:38.092Z,14.65
2018-12-03T13:08:38.081Z,14.69
2018-12-03T13:09:38.067Z,14.69
2018-12-03T13:10:38.054Z,14.57
2018-12-03T13:11:38.066Z,14.47